createdAt,value
2022-12-11T00:02:13.082Z,15.35
2022-12-11T00:04:40.184Z,15.30
2022-12-11T00:07:07.388Z,16.00
2022-12-11T00:09:34.564Z,15.85
2022-12-11T00:12:02.830Z,16.53
2022-12-11T00:14:30.167Z,16.68
2022-12-11T00:16:58.767Z,17.31
2022-12-11T00:19:25.962Z,17.55
2022-12-11T00:21:53.285Z,17.59
2022-12-11T00:24:20.463Z,17.83
2022-12-11T00:26:47.525Z,16.96
2022-12-11T00:29:14.765Z,17.64
2022-12-11T00:31:42.738Z,17.54
2022-12-11T00:34:11.524Z,17.74
2022-12-11T00:36:39.625Z,17.16
2022-12-11T00:39:07.647Z,16.34
2022-12-11T00:41:34.884Z,16.96
2022-12-11T00:44:02.606Z,16.44
2022-12-11T00:46:29.845Z,16.46
2022-12-11T00:48:57.125Z,15.79
2022-12-11T00:51:25.784Z,16.23
2022-12-11T00:53:52.871Z,14.78
2022-12-11T00:56:22.725Z,15.51
2022-12-11T00:58:50.824Z,15.08
2022-12-11T01:01:20.789Z,14.61
2022-12-11T01:03:48.309Z,13.92
2022-12-11T01:06:17.984Z,14.54
2022-12-11T01:08:47.843Z,14.59
2022-12-11T01:11:17.024Z,14.37
2022-12-11T01:13:44.287Z,14.77
2022-12-11T01:16:14.039Z,14.75
2022-12-11T01:18:42.407Z,14.70
2022-12-11T01:21:12.035Z,14.42
2022-12-11T01:23:39.846Z,14.77
2022-12-11T01:26:10.745Z,14.40
2022-12-11T01:28:37.925Z,14.30
2022-12-11T01:31:08.922Z,14.47
2022-12-11T01:33:36.105Z,13.48
2022-12-11T01:36:08.085Z,14.27
2022-12-11T01:38:35.226Z,14.24
2022-12-11T01:41:02.444Z,14.29
2022-12-11T01:43:31.325Z,13.95
2022-12-11T01:45:58.746Z,14.08
2022-12-11T01:48:29.904Z,14.45
2022-12-11T01:51:00.045Z,14.61
2022-12-11T01:53:32.446Z,14.03
2022-12-11T01:56:01.005Z,14.61
2022-12-11T01:58:35.805Z,14.40
2022-12-11T02:01:03.320Z,14.61
2022-12-11T02:03:30.624Z,14.52
2022-12-11T02:05:59.724Z,14.20
2022-12-11T02:08:27.157Z,13.97
2022-12-11T02:11:06.532Z,14.41
2022-12-11T02:13:44.708Z,14.22
2022-12-11T02:16:21.510Z,13.40
2022-12-11T02:19:00.709Z,14.35
2022-12-11T02:21:37.512Z,13.28
2022-12-11T02:24:31.669Z,13.36
2022-12-11T02:27:32.149Z,13.41
2022-12-11T02:30:06.271Z,12.80
2022-12-11T02:32:41.028Z,12.94
2022-12-11T02:35:14.270Z,13.04
2022-12-11T02:37:47.169Z,13.15
2022-12-11T02:40:21.668Z,13.75
2022-12-11T02:42:51.349Z,12.76
2022-12-11T02:45:24.431Z,12.50
2022-12-11T02:47:53.268Z,13.59
2022-12-11T02:50:23.210Z,13.10
2022-12-11T02:52:55.611Z,13.12
2022-12-11T02:55:26.493Z,13.34
2022-12-11T02:58:02.513Z,12.86
2022-12-11T03:00:31.668Z,13.81
2022-12-11T03:02:59.112Z,14.13
2022-12-11T03:05:26.710Z,13.82
2022-12-11T03:07:54.223Z,13.66
2022-12-11T03:10:21.470Z,13.63
2022-12-11T03:12:54.115Z,14.06
2022-12-11T03:15:31.889Z,13.64
2022-12-11T03:18:09.170Z,13.64
2022-12-11T03:20:42.854Z,13.25
2022-12-11T03:23:18.989Z,14.15
2022-12-11T03:25:54.419Z,13.64
2022-12-11T03:28:29.657Z,13.87
2022-12-11T03:30:58.561Z,13.96
2022-12-11T03:33:34.969Z,12.80
2022-12-11T03:36:08.771Z,14.19
2022-12-11T03:38:41.851Z,14.44
2022-12-11T03:41:12.070Z,13.94
2022-12-11T03:43:41.689Z,14.37
2022-12-11T03:46:12.747Z,14.07
2022-12-11T03:48:46.509Z,15.03
2022-12-11T03:51:17.214Z,15.38
2022-12-11T03:53:47.769Z,15.42
2022-12-11T03:56:18.410Z,15.17
2022-12-11T03:58:45.490Z,15.10
2022-12-11T04:01:12.669Z,15.37
2022-12-11T04:03:41.209Z,15.56
2022-12-11T04:06:08.451Z,15.24
2022-12-11T04:08:35.568Z,15.07
2022-12-11T04:11:04.969Z,14.79
2022-12-11T04:13:32.169Z,14.45
2022-12-11T04:15:59.257Z,15.11
2022-12-11T04:18:26.391Z,15.00
2022-12-11T04:20:55.750Z,15.35
2022-12-11T04:23:22.891Z,14.59
2022-12-11T04:25:50.491Z,15.76
2022-12-11T04:28:17.568Z,14.91
2022-12-11T04:30:49.047Z,15.44
2022-12-11T04:33:16.310Z,15.85
2022-12-11T04:35:43.528Z,15.04
2022-12-11T04:38:12.028Z,15.25
2022-12-11T04:40:39.175Z,15.48
2022-12-11T04:43:06.316Z,15.46
2022-12-11T04:45:34.090Z,15.01
2022-12-11T04:48:01.232Z,15.32
2022-12-11T04:50:28.629Z,15.67
2022-12-11T04:52:56.887Z,14.57
2022-12-11T04:55:25.588Z,15.10
2022-12-11T04:57:52.748Z,14.33
2022-12-11T05:00:19.991Z,14.95
2022-12-11T05:02:47.146Z,14.37
2022-12-11T05:05:14.422Z,14.91
2022-12-11T05:07:41.970Z,14.54
2022-12-11T05:10:09.929Z,14.86
2022-12-11T05:12:38.821Z,15.16
2022-12-11T05:15:07.109Z,15.06
2022-12-11T05:17:34.348Z,15.08
2022-12-11T05:20:01.469Z,14.23
2022-12-11T05:22:31.188Z,13.94
2022-12-11T05:24:58.468Z,14.69
2022-12-11T05:27:25.748Z,14.46
2022-12-11T05:29:59.216Z,14.73
2022-12-11T05:32:27.467Z,14.31
2022-12-11T05:34:54.549Z,14.34
2022-12-11T05:37:21.749Z,13.64
2022-12-11T05:39:48.949Z,14.44
2022-12-11T05:42:16.147Z,13.51
2022-12-11T05:44:43.348Z,13.62
2022-12-11T05:47:11.960Z,14.16
2022-12-11T05:49:39.419Z,14.66
2022-12-11T05:52:06.520Z,14.25
2022-12-11T05:54:33.597Z,14.77
2022-12-11T05:57:00.718Z,14.54
2022-12-11T05:59:27.779Z,15.00
2022-12-11T06:01:54.895Z,14.88
2022-12-11T06:04:23.678Z,13.69
2022-12-11T06:06:50.808Z,14.52
2022-12-11T06:09:18.078Z,14.79
2022-12-11T06:11:45.119Z,14.73
2022-12-11T06:14:12.637Z,14.76
2022-12-11T06:16:39.912Z,14.75
2022-12-11T06:19:07.221Z,14.57
2022-12-11T06:21:35.779Z,14.31
2022-12-11T06:24:04.599Z,14.21
2022-12-11T06:26:32.561Z,13.71
2022-12-11T06:28:59.760Z,13.51
2022-12-11T06:31:26.901Z,13.53
2022-12-11T06:33:54.347Z,13.76
2022-12-11T06:36:23.966Z,13.28
2022-12-11T06:38:54.799Z,13.47
2022-12-11T06:41:21.884Z,13.98
2022-12-11T06:43:49.138Z,14.25
2022-12-11T06:46:19.087Z,13.86
2022-12-11T06:48:47.738Z,14.08
2022-12-11T06:51:16.859Z,15.02
2022-12-11T06:53:44.281Z,13.63
2022-12-11T06:56:15.001Z,15.08
2022-12-11T06:58:43.717Z,14.85
2022-12-11T07:01:20.128Z,14.58
2022-12-11T07:03:47.621Z,14.06
2022-12-11T07:06:15.546Z,13.99
2022-12-11T07:08:43.267Z,14.15
2022-12-11T07:11:14.851Z,13.72
2022-12-11T07:13:42.471Z,13.78
2022-12-11T07:16:11.444Z,14.06
2022-12-11T07:18:39.809Z,14.11
2022-12-11T07:21:08.529Z,14.15
2022-12-11T07:23:35.950Z,13.98
2022-12-11T07:26:05.348Z,14.20
2022-12-11T07:28:35.027Z,14.28
2022-12-11T07:31:06.150Z,15.06
2022-12-11T07:33:33.449Z,14.71
2022-12-11T07:36:02.327Z,14.38
2022-12-11T07:38:29.529Z,14.56
2022-12-11T07:40:56.728Z,14.66
2022-12-11T07:43:23.930Z,15.27
2022-12-11T07:45:52.648Z,15.23
2022-12-11T07:48:19.928Z,14.26
2022-12-11T07:50:47.111Z,13.94
2022-12-11T07:53:14.410Z,12.84
2022-12-11T07:55:41.637Z,12.43
2022-12-11T07:58:08.730Z,11.94
2022-12-11T08:00:35.991Z,12.31
2022-12-11T08:03:04.736Z,11.91
2022-12-11T08:05:31.837Z,11.33
2022-12-11T08:07:59.016Z,11.23
2022-12-11T08:10:26.340Z,11.45
2022-12-11T08:12:53.538Z,11.02
2022-12-11T08:15:20.649Z,11.36
2022-12-11T08:17:47.687Z,10.89
2022-12-11T08:20:16.460Z,10.16
2022-12-11T08:22:43.757Z,9.79
2022-12-11T08:25:11.086Z,8.99
2022-12-11T08:27:38.337Z,8.60
2022-12-11T08:30:06.935Z,8.13
2022-12-11T08:32:35.041Z,8.02
2022-12-11T08:35:02.335Z,7.47
2022-12-11T08:37:30.896Z,7.69
2022-12-11T08:39:58.044Z,7.76
2022-12-11T08:42:25.165Z,7.57
2022-12-11T08:44:52.288Z,7.21
2022-12-11T08:47:19.446Z,7.89
2022-12-11T08:49:46.643Z,7.69
2022-12-11T08:52:13.743Z,7.42
2022-12-11T08:54:42.504Z,7.20
2022-12-11T08:57:09.584Z,7.05
2022-12-11T08:59:36.703Z,7.22
2022-12-11T09:02:03.765Z,7.14
2022-12-11T09:04:30.904Z,7.61
2022-12-11T09:06:58.084Z,7.52
2022-12-11T09:09:25.133Z,8.21
2022-12-11T09:11:53.704Z,8.25
2022-12-11T09:14:20.943Z,7.88
2022-12-11T09:16:48.303Z,7.69
2022-12-11T09:19:15.784Z,8.11
2022-12-11T09:21:45.043Z,7.64
2022-12-11T09:24:13.426Z,8.23
2022-12-11T09:26:41.905Z,8.26
2022-12-11T09:29:12.063Z,8.76
2022-12-11T09:31:39.227Z,8.67
2022-12-11T09:34:11.244Z,8.01
2022-12-11T09:36:39.885Z,9.17
2022-12-11T09:39:08.703Z,8.84
2022-12-11T09:41:39.623Z,8.71
2022-12-11T09:44:33.584Z,8.30
2022-12-11T09:47:01.383Z,8.67
2022-12-11T09:49:37.826Z,8.41
2022-12-11T09:52:15.566Z,8.87
2022-12-11T09:54:50.529Z,8.68
2022-12-11T09:57:32.045Z,9.02
2022-12-11T10:00:14.224Z,8.85
2022-12-11T10:03:06.025Z,9.29
2022-12-11T10:05:43.104Z,9.07
2022-12-11T10:08:22.927Z,8.63
2022-12-11T10:10:59.524Z,9.05
2022-12-11T10:13:37.204Z,8.97
2022-12-11T10:16:19.140Z,8.53
2022-12-11T10:18:47.924Z,7.98
2022-12-11T10:21:18.244Z,8.47
2022-12-11T10:23:54.304Z,8.17
2022-12-11T10:26:23.088Z,8.26
2022-12-11T10:28:51.091Z,7.86
2022-12-11T10:31:28.216Z,7.83
2022-12-11T10:34:01.346Z,8.20
2022-12-11T10:36:32.381Z,8.66
2022-12-11T10:38:59.700Z,8.67
2022-12-11T10:41:37.713Z,8.68
2022-12-11T10:44:17.049Z,8.14
2022-12-11T10:46:46.439Z,8.30
2022-12-11T10:49:25.885Z,7.99
2022-12-11T10:51:56.079Z,9.73
2022-12-11T10:54:33.262Z,8.57
2022-12-11T10:57:03.562Z,8.81
2022-12-11T10:59:37.602Z,8.06
2022-12-11T11:02:18.363Z,7.81
2022-12-11T11:04:46.380Z,7.87
2022-12-11T11:07:16.081Z,7.33
2022-12-11T11:09:43.369Z,8.32
2022-12-11T11:12:23.690Z,7.92
2022-12-11T11:15:01.451Z,7.86
2022-12-11T11:17:35.109Z,7.39
2022-12-11T11:20:14.805Z,8.17
2022-12-11T11:22:48.503Z,7.12
2022-12-11T11:25:21.445Z,7.18
2022-12-11T11:27:52.867Z,7.39
2022-12-11T11:30:23.852Z,7.28
2022-12-11T11:32:55.870Z,7.63
2022-12-11T11:35:26.197Z,7.85
2022-12-11T11:38:05.902Z,8.24
2022-12-11T11:40:41.322Z,8.83
2022-12-11T11:43:19.203Z,8.70
2022-12-11T11:45:55.702Z,8.60
2022-12-11T11:48:36.542Z,9.71
2022-12-11T11:51:14.863Z,10.42
2022-12-11T11:53:49.783Z,10.12
2022-12-11T11:56:25.762Z,10.06
2022-12-11T11:59:01.907Z,9.70
2022-12-11T12:01:29.746Z,9.82
2022-12-11T12:04:01.423Z,9.45
2022-12-11T12:06:55.446Z,10.04
2022-12-11T12:09:38.977Z,9.22
2022-12-11T12:12:24.722Z,9.73
2022-12-11T12:15:07.663Z,10.59
2022-12-11T12:17:53.624Z,10.24
2022-12-11T12:20:36.079Z,9.67
2022-12-11T12:23:34.896Z,9.71
2022-12-11T12:26:12.338Z,9.98
2022-12-11T12:28:49.558Z,9.88
2022-12-11T12:31:36.197Z,10.03
2022-12-11T12:34:12.837Z,9.93
2022-12-11T12:36:52.699Z,9.31
2022-12-11T12:39:34.156Z,9.86
2022-12-11T12:42:13.697Z,10.25
2022-12-11T12:44:52.157Z,10.36
2022-12-11T12:47:21.077Z,10.13
2022-12-11T12:49:51.176Z,11.19
2022-12-11T12:52:28.138Z,10.72
2022-12-11T12:55:00.517Z,10.14
2022-12-11T12:57:27.962Z,9.93
2022-12-11T12:59:55.036Z,10.14
2022-12-11T13:02:23.028Z,12.34
2022-12-11T13:04:59.257Z,12.60
2022-12-11T13:07:31.858Z,12.21
2022-12-11T13:10:03.239Z,12.87
2022-12-11T13:12:42.681Z,12.96
2022-12-11T13:15:36.225Z,12.94
2022-12-11T13:18:25.649Z,13.13
2022-12-11T13:20:53.077Z,12.98
2022-12-11T13:23:29.121Z,13.13
2022-12-11T13:25:58.378Z,11.81
2022-12-11T13:28:45.817Z,13.03
2022-12-11T13:31:35.472Z,13.22
2022-12-11T13:34:17.897Z,13.00
2022-12-11T13:36:50.678Z,12.48
2022-12-11T13:39:24.141Z,12.43
2022-12-11T13:41:55.457Z,14.03
2022-12-11T13:44:26.857Z,11.50
2022-12-11T13:46:58.391Z,12.98
2022-12-11T13:49:33.451Z,12.00
2022-12-11T13:52:01.968Z,13.10
2022-12-11T13:54:32.150Z,13.53
2022-12-11T13:57:02.965Z,13.97
2022-12-11T13:59:33.406Z,13.85
2022-12-11T14:02:10.630Z,13.54
2022-12-11T14:04:38.547Z,14.30
2022-12-11T14:07:09.127Z,13.73
2022-12-11T14:09:43.535Z,14.12
2022-12-11T14:12:18.669Z,13.98
2022-12-11T14:14:50.706Z,14.45
2022-12-11T14:17:27.489Z,14.44
2022-12-11T14:19:59.285Z,14.53
2022-12-11T14:22:29.385Z,15.11
2022-12-11T14:25:00.425Z,15.31
2022-12-11T14:27:28.588Z,14.82
2022-12-11T14:29:56.062Z,14.87
2022-12-11T14:32:31.446Z,15.53
2022-12-11T14:35:02.196Z,15.51
2022-12-11T14:37:29.708Z,15.44
2022-12-11T14:40:06.192Z,15.36
2022-12-11T14:42:40.586Z,15.70
2022-12-11T14:45:19.971Z,15.54
2022-12-11T14:47:47.566Z,14.80
2022-12-11T14:50:20.687Z,15.73
2022-12-11T14:52:53.828Z,15.98
2022-12-11T14:55:27.370Z,15.73
2022-12-11T14:57:59.316Z,15.70
2022-12-11T15:00:29.668Z,16.25
2022-12-11T15:03:00.373Z,16.37
2022-12-11T15:05:28.668Z,16.17
2022-12-11T15:08:01.459Z,15.76
2022-12-11T15:10:39.908Z,15.53
2022-12-11T15:13:09.586Z,15.71
2022-12-11T15:15:45.887Z,16.36
2022-12-11T15:18:21.219Z,15.43
2022-12-11T15:20:53.652Z,15.81
2022-12-11T15:23:21.169Z,15.45
2022-12-11T15:25:55.307Z,15.36
2022-12-11T15:28:32.299Z,15.46
2022-12-11T15:31:02.083Z,15.45
2022-12-11T15:33:34.338Z,15.84
2022-12-11T15:36:05.378Z,15.39
2022-12-11T15:38:36.188Z,15.22
2022-12-11T15:41:06.327Z,15.84
2022-12-11T15:43:37.739Z,15.72
2022-12-11T15:46:06.384Z,15.76
2022-12-11T15:48:34.026Z,15.36
2022-12-11T15:51:01.306Z,15.80
2022-12-11T15:53:28.366Z,15.92
2022-12-11T15:55:57.608Z,15.64
2022-12-11T15:58:27.728Z,16.22
2022-12-11T16:00:55.953Z,16.12
2022-12-11T16:03:23.608Z,16.28
2022-12-11T16:05:52.407Z,16.47
2022-12-11T16:08:22.275Z,16.57
2022-12-11T16:10:51.510Z,17.46
2022-12-11T16:13:18.666Z,17.26
2022-12-11T16:15:49.790Z,17.48
2022-12-11T16:18:19.567Z,16.75
2022-12-11T16:20:48.999Z,17.13
2022-12-11T16:23:17.108Z,17.75
2022-12-11T16:25:46.559Z,18.06
2022-12-11T16:28:17.109Z,18.01
2022-12-11T16:30:46.040Z,17.57
2022-12-11T16:33:14.807Z,17.33
2022-12-11T16:35:42.709Z,17.14
2022-12-11T16:38:10.811Z,17.20
2022-12-11T16:40:38.767Z,17.21
2022-12-11T16:43:06.648Z,16.85
2022-12-11T16:45:34.008Z,15.93
2022-12-11T16:48:05.498Z,15.51
2022-12-11T16:50:33.239Z,15.63
2022-12-11T16:53:00.892Z,16.34
2022-12-11T16:55:28.046Z,16.35
2022-12-11T16:57:55.203Z,15.87
2022-12-11T17:00:22.486Z,15.14
2022-12-11T17:02:49.709Z,16.40
2022-12-11T17:05:18.387Z,16.10
2022-12-11T17:07:45.639Z,16.53
2022-12-11T17:10:13.107Z,17.14
2022-12-11T17:12:40.328Z,17.33
2022-12-11T17:15:08.231Z,17.38
2022-12-11T17:17:35.469Z,17.55
2022-12-11T17:20:02.688Z,17.94
2022-12-11T17:22:31.285Z,18.02
2022-12-11T17:24:58.406Z,18.30
2022-12-11T17:27:25.530Z,18.39
2022-12-11T17:29:52.650Z,18.93
2022-12-11T17:32:19.881Z,19.24
2022-12-11T17:34:47.446Z,18.71
2022-12-11T17:37:14.866Z,18.48
2022-12-11T17:39:44.066Z,19.66
2022-12-11T17:42:11.129Z,19.29
2022-12-11T17:44:38.429Z,19.16
2022-12-11T17:47:10.872Z,17.96
2022-12-11T17:49:38.559Z,18.30
2022-12-11T17:52:05.946Z,18.17
2022-12-11T17:54:32.986Z,17.28
2022-12-11T17:57:01.586Z,16.98
2022-12-11T17:59:28.710Z,17.07
2022-12-11T18:01:55.897Z,16.66
2022-12-11T18:04:23.087Z,16.96
2022-12-11T18:06:50.966Z,17.44
2022-12-11T18:09:18.087Z,17.24
2022-12-11T18:11:45.566Z,17.14
2022-12-11T18:14:17.407Z,17.30
2022-12-11T18:16:45.167Z,16.54
2022-12-11T18:19:12.908Z,16.27
2022-12-11T18:21:45.526Z,16.43
2022-12-11T18:24:12.667Z,16.65
2022-12-11T18:26:39.946Z,16.02
2022-12-11T18:29:07.067Z,15.21
2022-12-11T18:31:40.657Z,16.64
2022-12-11T18:34:10.870Z,16.18
2022-12-11T18:36:38.511Z,16.62
2022-12-11T18:39:05.708Z,16.78
2022-12-11T18:41:32.931Z,16.25
2022-12-11T18:44:05.169Z,16.25
2022-12-11T18:46:37.118Z,17.14
2022-12-11T18:49:04.306Z,17.13
2022-12-11T18:51:31.795Z,18.03
2022-12-11T18:53:58.971Z,17.15
2022-12-11T18:56:26.306Z,17.55
2022-12-11T18:58:53.446Z,17.70
2022-12-11T19:01:23.855Z,17.88
2022-12-11T19:03:56.326Z,17.96
2022-12-11T19:06:29.247Z,18.44
2022-12-11T19:08:56.818Z,18.66
2022-12-11T19:11:26.407Z,19.00
2022-12-11T19:13:55.229Z,18.58
2022-12-11T19:16:26.818Z,18.43
2022-12-11T19:18:56.106Z,19.61
2022-12-11T19:21:23.305Z,20.82
2022-12-11T19:23:50.839Z,19.50
2022-12-11T19:26:20.953Z,18.74
2022-12-11T19:28:52.067Z,20.00
2022-12-11T19:31:22.612Z,19.01
2022-12-11T19:33:50.566Z,19.95
2022-12-11T19:36:21.727Z,21.67
2022-12-11T19:38:49.266Z,20.57
2022-12-11T19:41:19.006Z,20.39
2022-12-11T19:43:46.606Z,20.41
2022-12-11T19:46:14.511Z,20.45
2022-12-11T19:48:42.727Z,20.16
2022-12-11T19:51:12.746Z,20.49
2022-12-11T19:53:42.827Z,20.32
2022-12-11T19:56:11.585Z,20.84
2022-12-11T19:58:39.265Z,21.70
2022-12-11T20:01:07.594Z,20.72
2022-12-11T20:03:35.366Z,20.46
2022-12-11T20:06:06.030Z,20.94
2022-12-11T20:08:49.734Z,22.30
2022-12-11T20:11:19.259Z,21.88
2022-12-11T20:13:47.651Z,22.24
2022-12-11T20:16:16.874Z,20.80
2022-12-11T20:18:45.713Z,21.47
2022-12-11T20:21:14.892Z,21.31
2022-12-11T20:23:42.706Z,21.05
2022-12-11T20:26:12.809Z,21.23
2022-12-11T20:28:41.566Z,20.83
2022-12-11T20:31:14.988Z,20.35
2022-12-11T20:33:47.849Z,21.50
2022-12-11T20:36:17.645Z,20.53
2022-12-11T20:38:44.859Z,21.75
2022-12-11T20:41:14.510Z,21.08
2022-12-11T20:43:43.871Z,21.10
2022-12-11T20:46:14.644Z,21.34
2022-12-11T20:48:44.370Z,21.48
2022-12-11T20:51:14.708Z,22.65
2022-12-11T20:53:43.368Z,21.98
2022-12-11T20:56:12.810Z,20.79
2022-12-11T20:58:40.391Z,21.33
2022-12-11T21:01:13.913Z,21.64
2022-12-11T21:03:42.256Z,20.63
2022-12-11T21:06:09.927Z,20.48
2022-12-11T21:08:37.066Z,19.54
2022-12-11T21:11:06.307Z,20.55
2022-12-11T21:13:33.608Z,21.35
2022-12-11T21:16:05.556Z,21.17
2022-12-11T21:18:34.447Z,20.72
2022-12-11T21:21:01.691Z,20.17
2022-12-11T21:23:28.910Z,20.90
2022-12-11T21:25:56.268Z,21.31
2022-12-11T21:28:23.428Z,21.23
2022-12-11T21:30:51.388Z,21.34
2022-12-11T21:33:18.509Z,21.11
2022-12-11T21:35:54.287Z,20.48
2022-12-11T21:38:21.387Z,21.03
2022-12-11T21:40:49.431Z,21.35
2022-12-11T21:43:16.747Z,20.73
2022-12-11T21:46:01.458Z,20.79
2022-12-11T21:48:29.310Z,20.60
2022-12-11T21:51:05.394Z,20.11
2022-12-11T21:53:33.681Z,19.85
2022-12-11T21:56:04.031Z,19.75
2022-12-11T21:58:33.631Z,19.15
2022-12-11T22:01:00.805Z,19.28
2022-12-11T22:03:28.010Z,20.13
2022-12-11T22:05:55.470Z,19.63
2022-12-11T22:08:24.094Z,19.23
2022-12-11T22:10:51.289Z,18.98
2022-12-11T22:13:18.471Z,19.35
2022-12-11T22:15:45.878Z,19.24
2022-12-11T22:18:13.050Z,18.69
2022-12-11T22:20:40.410Z,19.16
2022-12-11T22:23:07.530Z,18.53
2022-12-11T22:25:36.210Z,19.05
2022-12-11T22:28:04.210Z,18.82
2022-12-11T22:30:31.862Z,18.10
2022-12-11T22:32:58.972Z,18.50
2022-12-11T22:35:27.558Z,17.54
2022-12-11T22:37:54.950Z,17.84
2022-12-11T22:40:23.170Z,17.98
2022-12-11T22:42:51.668Z,17.87
2022-12-11T22:45:19.170Z,17.54
2022-12-11T22:47:46.368Z,17.56
2022-12-11T22:50:14.810Z,16.99
2022-12-11T22:52:42.869Z,17.24
2022-12-11T22:55:10.323Z,17.01
2022-12-11T22:57:39.249Z,17.43
2022-12-11T23:00:13.201Z,17.05
2022-12-11T23:02:40.911Z,16.99
2022-12-11T23:05:11.776Z,16.81
2022-12-11T23:07:40.019Z,17.15
2022-12-11T23:10:10.211Z,17.42
2022-12-11T23:12:37.668Z,16.60
2022-12-11T23:15:07.879Z,16.96
2022-12-11T23:17:35.090Z,16.54
2022-12-11T23:20:02.330Z,16.25
2022-12-11T23:22:30.228Z,16.09
2022-12-11T23:24:57.773Z,16.27
2022-12-11T23:27:25.089Z,14.37
2022-12-11T23:29:52.234Z,15.18
2022-12-11T23:32:20.889Z,15.39
2022-12-11T23:34:48.149Z,15.22
2022-12-11T23:37:15.305Z,14.63
2022-12-11T23:39:42.709Z,15.12
2022-12-11T23:42:09.830Z,14.76
2022-12-11T23:44:37.451Z,14.89
2022-12-11T23:47:04.729Z,14.85
2022-12-11T23:49:33.452Z,15.97
2022-12-11T23:52:00.750Z,15.53
2022-12-11T23:54:27.974Z,15.43
2022-12-11T23:56:55.388Z,15.40
2022-12-11T23:59:22.593Z,15.26
